Orbital elements of FENGYUN 1C DEB
| Launched | 9 May 1999 |
| Flight ended | – |
| Launch site | Taiyuan Space Center, PRC |
| Owner | People's Republic of China |
| NORAD ID | 30391 |
| Date fetched |
Epoch osculation |
Inc. [°] |
Ecc. | RA asc node [hr] |
Arg Peri. [°] |
Mean anom [°] |
Mean motion [rev/day] |
Abs. mag |
| Date fetched |
Epoch osculation |
Inc. [°] |
Ecc. | RA asc node [hr] |
Arg Peri. [°] |
Mean anom [°] |
Mean motion [rev/day] |
Abs. mag |
| 2026 May 10 17:57 | 2026 May 10 00:37:17 | 98.7628 | 0.00717 | 11.9292 | 196.8758 | 233.1199 | 14.16883 | – |
| 2026 May 09 17:57 | 2026 May 05 01:47:44 | 98.7633 | 0.00712 | 11.6039 | 211.0201 | 233.1199 | 14.16883 | – |
| 2026 May 08 17:57 | 2026 May 05 01:47:44 | 98.7633 | 0.00712 | 11.6039 | 211.0201 | 233.1199 | 14.16883 | – |
| 2026 May 07 17:58 | 2026 May 05 01:47:44 | 98.7633 | 0.00712 | 11.6039 | 211.0201 | 233.1199 | 14.16883 | – |
| 2026 May 06 17:57 | 2026 May 05 01:47:44 | 98.7633 | 0.00712 | 11.6039 | 211.0201 | 233.1199 | 14.16883 | – |
| 2026 May 05 17:57 | 2026 May 05 01:47:44 | 98.7633 | 0.00712 | 11.6039 | 211.0201 | 233.1199 | 14.16883 | – |
| 2026 May 04 17:57 | 2026 Apr 30 15:38:08 | 98.7638 | 0.00708 | 11.3133 | 223.7026 | 233.1199 | 14.16883 | – |
| 2026 May 03 17:57 | 2026 Apr 30 15:38:08 | 98.7638 | 0.00708 | 11.3133 | 223.7026 | 233.1199 | 14.16883 | – |
| 2026 May 02 17:57 | 2026 Apr 30 15:38:08 | 98.7638 | 0.00708 | 11.3133 | 223.7026 | 233.1199 | 14.16883 | – |
| 2026 May 01 17:56 | 2026 Apr 30 15:38:08 | 98.7638 | 0.00708 | 11.3133 | 223.7026 | 233.1199 | 14.16883 | – |
| 2026 Apr 30 17:56 | 2026 Apr 30 15:38:08 | 98.7638 | 0.00708 | 11.3133 | 223.7026 | 233.1199 | 14.16883 | – |
| 2026 Apr 29 17:57 | 2026 Apr 24 03:16:39 | 98.7644 | 0.00702 | 10.8853 | 242.5351 | 233.1199 | 14.16883 | – |
| 2026 Apr 28 17:56 | 2026 Apr 24 03:16:39 | 98.7644 | 0.00702 | 10.8853 | 242.5351 | 233.1199 | 14.16883 | – |
| 2026 Apr 27 17:58 | 2026 Apr 24 03:16:39 | 98.7644 | 0.00702 | 10.8853 | 242.5351 | 233.1199 | 14.16883 | – |
| 2026 Apr 26 17:58 | 2026 Apr 24 03:16:39 | 98.7644 | 0.00702 | 10.8853 | 242.5351 | 233.1199 | 14.16883 | – |
| 2026 Apr 25 17:58 | 2026 Apr 24 03:16:39 | 98.7644 | 0.00702 | 10.8853 | 242.5351 | 233.1199 | 14.16883 | – |
| 2026 Apr 24 17:59 | 2026 Apr 24 03:16:39 | 98.7644 | 0.00702 | 10.8853 | 242.5351 | 233.1199 | 14.16883 | – |
| 2026 Apr 23 17:57 | 2026 Apr 19 02:44:17 | 98.7651 | 0.00699 | 10.5553 | 257.1238 | 233.1199 | 14.16883 | – |
| 2026 Apr 22 17:57 | 2026 Apr 19 02:44:17 | 98.7651 | 0.00699 | 10.5553 | 257.1238 | 233.1199 | 14.16883 | – |
| 2026 Apr 21 17:57 | 2026 Apr 19 02:44:17 | 98.7651 | 0.00699 | 10.5553 | 257.1238 | 233.1199 | 14.16883 | – |
| 2026 Apr 20 17:57 | 2026 Apr 19 02:44:17 | 98.7651 | 0.00699 | 10.5553 | 257.1238 | 233.1199 | 14.16883 | – |
| 2026 Apr 19 17:58 | 2026 Apr 19 02:44:17 | 98.7651 | 0.00699 | 10.5553 | 257.1238 | 233.1199 | 14.16883 | – |
| 2026 Apr 18 17:56 | 2026 Apr 13 02:40:21 | 98.7658 | 0.00696 | 10.1608 | 274.6650 | 233.1199 | 14.16883 | – |
| 2026 Apr 16 17:57 | 2026 Apr 13 02:40:21 | 98.7658 | 0.00696 | 10.1608 | 274.6650 | 233.1199 | 14.16883 | – |
| 2026 Apr 14 17:57 | 2026 Apr 13 02:40:21 | 98.7658 | 0.00696 | 10.1608 | 274.6650 | 233.1199 | 14.16883 | – |
| 2026 Apr 13 17:57 | 2026 Apr 13 02:40:21 | 98.7658 | 0.00696 | 10.1608 | 274.6650 | 233.1199 | 14.16883 | – |